Lenola, New Jersey
Current Conditions -  °F | °C
As of 6:54 AM on Thursday 27 Nov 2014 (Local Time) from KVAY Reporting Station
Overcast Overcast  
Wind Chill: 31°   Ceiling: 4400
Heat Index: 35°   Visibility: 10mi
Dew Point: 30°   Wind: 5mph
Humidity: 82%   Direction: 280°W
Pressure: 30"   Gusts: NA
Location:  39.9782°N, 74.9415°W
Report Text: KVAY 271154Z AUTO 28004KT 10SM OVC044 02/M01 A3000 RMK AO2 SLP158 70115 T00171011 10022 20017 53008
Loading
Personal Weather Stations






























Interactive Weather Map New forecast layout! Learn more

10-Day Weather Forecast

Advertisements
Track Severe Weather on mobile